Time;durP1;ratioP1;P1;durP2;ratioP2;P2;SDS_P1;SDS_P2;PMS_P1;PMS_P2;Temp;Humidity;BMP_temperature;BMP_pressure;BME280_temperature;BME280_humidity;BME280_pressure;Samples;Min_cycle;Max_cycle;Signal;HPM_P1;HPM_P2
2023/07/01 00:01:59;;;;;;;;;9.33;8.33;;;;;21.65;58.83;100202.63;146631;590;45015;-67
2023/07/01 00:06:02;;;;;;;;;14.00;11.25;;;;;21.67;59.42;100217.56;146633;630;45020;-67
2023/07/01 00:10:02;;;;;;;;;;;;;;;;;;;;;
2023/07/01 00:13:39;;;;;;;;;;;;;;;;;;;;;
2023/07/01 00:17:42;;;;;;;;;;;;;;;;;;;;;
2023/07/01 00:29:44;;;;;;;;;10.67;8.67;;;;;21.74;59.33;100241.31;146630;656;45012;-69
2023/07/01 00:34:14;;;;;;;;;;;;;;;;;;;;;
2023/07/01 00:38:10;;;;;;;;;;;;;;;;;;;;;
2023/07/01 00:42:12;;;;;;;;;8.67;7.33;;;;;21.40;59.72;100172.78;146635;564;45019;-70
2023/07/01 00:46:34;;;;;;;;;8.50;8.00;;;;;21.42;60.02;100184.22;146635;561;45020;-68
2023/07/01 00:50:48;;;;;;;;;;;;;;;;;;;;;
2023/07/01 00:54:51;;;;;;;;;10.33;10.33;;;;;21.52;59.60;100233.44;146632;677;45015;-69
2023/07/01 00:58:32;;;;;;;;;9.67;8.33;;;;;23.36;60.11;100543.88;146630;575;45014;-69
2023/07/01 01:02:19;;;;;;;;;12.67;9.67;;;;;22.39;60.14;100358.25;146629;585;45014;-69
2023/07/01 01:06:09;;;;;;;;;;;;;;;;;;;;;
2023/07/01 01:10:03;;;;;;;;;9.50;9.50;;;;;21.50;59.59;100198.28;146632;639;45014;-68
2023/07/01 01:14:07;;;;;;;;;;;;;;;;;;;;;
2023/07/01 01:18:09;;;;;;;;;;;;;;;;;;;;;
2023/07/01 01:21:37;;;;;;;;;10.00;9.00;;;;;23.50;60.23;100556.16;146634;652;45014;-68
2023/07/01 01:25:17;;;;;;;;;;;;;;;;;;;;;
2023/07/01 01:28:59;;;;;;;;;9.25;8.75;;;;;21.25;60.09;100178.94;146634;711;45014;-68
2023/07/01 01:33:22;;;;;;;;;;;;;;;;;;;;;
2023/07/01 01:37:25;;;;;;;;;10.50;9.25;;;;;23.30;61.27;100558.00;146628;627;45018;-68
2023/07/01 01:41:46;;;;;;;;;10.33;8.67;;;;;23.23;61.03;100543.91;146637;681;45014;-67
2023/07/01 01:45:27;;;;;;;;;9.75;9.75;;;;;23.25;61.70;100547.44;146630;584;45015;-69
2023/07/01 01:49:39;;;;;;;;;11.00;10.00;;;;;21.24;60.86;100193.00;146636;573;45014;-69
2023/07/01 01:53:17;;;;;;;;;10.75;9.75;;;;;23.39;61.22;100542.09;146629;651;45015;-70
2023/07/01 01:57:10;;;;;;;;;9.00;8.33;;;;;21.34;60.64;100168.38;146640;668;45020;-70
2023/07/01 02:00:45;;;;;;;;;7.67;7.67;;;;;23.58;60.87;100526.13;146639;569;44916;-69
2023/07/01 02:04:04;;;;;;;;;10.25;10.25;;;;;23.64;60.18;100519.03;146642;576;44020;-69
2023/07/01 02:07:49;;;;;;;;;;;;;;;;;;;;;
2023/07/01 02:11:28;;;;;;;;;12.25;11.00;;;;;21.46;59.25;100125.28;146642;569;44020;-69
2023/07/01 02:19:14;;;;;;;;;10.00;9.00;;;;;21.99;59.72;100219.25;146641;569;44020;-68
2023/07/01 02:22:59;;;;;;;;;11.00;10.00;;;;;21.82;59.73;100187.62;146640;586;44914;-67
2023/07/01 02:27:03;;;;;;;;;9.00;8.00;;;;;23.84;59.90;100545.44;146642;602;44022;-68
2023/07/01 02:30:51;;;;;;;;;9.00;9.00;;;;;21.85;60.34;100234.25;146637;588;44914;-69
2023/07/01 02:34:41;;;;;;;;;10.33;8.00;;;;;21.50;60.60;100184.22;146642;577;44020;-69
2023/07/01 02:38:50;;;;;;;;;12.33;9.33;;;;;22.41;60.84;100364.41;146639;565;45019;-69
2023/07/01 02:42:31;;;;;;;;;;;;;;;;;;;;;
2023/07/01 02:50:28;;;;;;;;;8.33;8.00;;;;;23.43;61.02;100569.44;146640;563;44020;-68
2023/07/01 02:54:41;;;;;;;;;;;;;;;;;;;;;
2023/07/01 02:57:51;;;;;;;;;9.00;9.00;;;;;23.22;62.22;100568.63;146630;565;45014;-70
2023/07/01 03:05:53;;;;;;;;;;;;;;;;;;;;;
2023/07/01 03:09:49;;;;;;;;;10.00;8.00;;;;;22.98;62.97;100543.13;146633;595;45014;-66
2023/07/01 03:13:16;;;;;;;;;;;;;;;;;;;;;
2023/07/01 03:17:25;;;;;;;;;;;;;;;;;;;;;
2023/07/01 03:20:52;;;;;;;;;7.67;7.00;;;;;23.04;62.13;100540.47;146636;570;45014;-68
2023/07/01 03:25:35;;;;;;;;;;;;;;;;;;;;;
2023/07/01 03:29:29;;;;;;;;;8.00;7.33;;;;;21.20;61.31;100184.22;146638;585;45015;-67
2023/07/01 03:33:33;;;;;;;;;10.50;10.50;;;;;22.41;61.94;100360.00;146628;565;45918;-67
2023/07/01 03:37:49;;;;;;;;;;;;;;;;;;;;;
2023/07/01 03:41:46;;;;;;;;;;;;;;;;;;;;;
2023/07/01 03:45:54;;;;;;;;;10.00;9.33;;;;;21.67;62.05;100233.41;146635;703;45014;-69
2023/07/01 03:49:59;;;;;;;;;;;;;;;;;;;;;
2023/07/01 03:53:43;;;;;;;;;;;;;;;;;;;;;
2023/07/01 03:57:37;;;;;;;;;11.33;8.00;;;;;22.00;62.71;100292.31;146637;645;45010;-68
2023/07/01 04:01:41;;;;;;;;;;;;;;;;;;;;;
2023/07/01 04:05:34;;;;;;;;;;;;;;;;;;;;;
2023/07/01 04:09:06;;;;;;;;;9.67;8.33;;;;;21.50;62.63;100185.09;146643;646;44021;-70
2023/07/01 04:13:06;;;;;;;;;8.00;8.00;;;;;21.89;63.04;100214.88;146641;575;44916;-68
2023/07/01 04:16:53;;;;;;;;;;;;;;;;;;;;;
2023/07/01 04:20:48;;;;;;;;;;;;;;;;;;;;;
2023/07/01 04:25:09;;;;;;;;;;;;;;;;;;;;;
2023/07/01 04:29:09;;;;;;;;;;;;;;;;;;;;;
2023/07/01 04:33:00;;;;;;;;;7.33;7.00;;;;;22.99;61.11;100166.78;146642;624;44020;-69
2023/07/01 04:36:59;;;;;;;;;10.25;10.25;;;;;25.53;60.19;100559.84;146636;633;44917;-70
2023/07/01 04:41:09;;;;;;;;;;;;;;;;;;;;;
2023/07/01 04:48:59;;;;;;;;;10.75;8.75;;;;;24.37;57.80;100231.50;146640;566;44020;-69
2023/07/01 04:53:04;;;;;;;;;10.33;9.67;;;;;24.37;57.88;100205.00;146638;578;44914;-68
2023/07/01 05:00:52;;;;;;;;;11.25;10.25;;;;;26.77;57.19;100555.31;146638;707;44916;-70
2023/07/01 05:05:19;;;;;;;;;;;;;;;;;;;;;
2023/07/01 05:09:13;;;;;;;;;10.00;9.00;;;;;25.33;57.09;100261.06;146640;661;44914;-68
2023/07/01 05:16:24;;;;;;;;;10.50;9.75;;;;;27.17;56.62;100563.47;146639;583;44915;-70
2023/07/01 05:24:11;;;;;;;;;;;;;;;;;;;;;
2023/07/01 05:32:09;;;;;;;;;;;;;;;;;;;;;
2023/07/01 05:35:48;;;;;;;;;10.50;10.00;;;;;27.52;57.32;100577.84;146641;564;44020;-68
2023/07/01 05:39:46;;;;;;;;;;;;;;;;;;;;;
2023/07/01 05:43:37;;;;;;;;;11.75;11.75;;;;;25.67;56.83;100228.62;146642;625;44020;-66
2023/07/01 05:47:34;;;;;;;;;9.25;8.75;;;;;26.64;56.55;100368.50;146636;673;45012;-66
2023/07/01 05:55:26;;;;;;;;;9.67;8.33;;;;;26.57;55.47;100273.78;146633;615;45014;-67
2023/07/01 05:59:22;;;;;;;;;11.00;10.00;;;;;26.82;55.45;100289.22;146633;599;45012;-69
2023/07/01 06:03:11;;;;;;;;;;;;;;;;;;;;;
2023/07/01 06:06:59;;;;;;;;;8.00;7.33;;;;;28.64;55.00;100563.75;146638;565;45014;-67
2023/07/01 06:10:53;;;;;;;;;9.00;9.00;;;;;28.81;54.59;100557.97;146633;645;45014;-67
2023/07/01 06:15:03;;;;;;;;;8.00;8.00;;;;;27.13;54.26;100257.44;146627;631;46010;-67
2023/07/01 06:23:02;;;;;;;;;10.00;9.00;;;;;29.24;52.80;100547.88;146635;667;46010;-68
2023/07/01 06:27:18;;;;;;;;;;;;;;;;;;;;;
2023/07/01 06:35:22;;;;;;;;;6.33;6.33;;;;;29.60;52.75;100550.41;146632;622;45014;-69
2023/07/01 06:42:37;;;;;;;;;;;;;;;;;;;;;
2023/07/01 06:46:20;;;;;;;;;8.00;8.00;;;;;27.95;52.32;100246.50;146633;603;45014;-69
2023/07/01 06:49:58;;;;;;;;;10.33;8.00;;;;;27.92;52.18;100241.25;146632;579;45014;-67
2023/07/01 06:57:59;;;;;;;;;;;;;;;;;;;;;
2023/07/01 07:05:55;;;;;;;;;9.00;9.00;;;;;28.00;50.49;100220.56;146645;618;44918;-67
2023/07/01 07:10:08;;;;;;;;;8.67;6.33;;;;;28.57;50.47;100322.06;146644;629;44020;-68
2023/07/01 07:14:32;;;;;;;;;;;;;;;;;;;;;
2023/07/01 07:18:17;;;;;;;;;;;;;;;;;;;;;
2023/07/01 07:26:01;;;;;;;;;10.00;8.67;;;;;28.41;50.63;100274.53;146645;590;45010;-68
2023/07/01 07:30:47;;;;;;;;;;;;;;;;;;;;;
2023/07/01 07:34:05;;;;;;;;;8.67;7.67;;;;;30.08;48.98;100543.59;146644;576;44021;-69
2023/07/01 07:38:36;;;;;;;;;;;;;;;;;;;;;
2023/07/01 07:42:58;;;;;;;;;;;;;;;;;;;;;
2023/07/01 07:46:53;;;;;;;;;;;;;;;;;;;;;
2023/07/01 07:51:09;;;;;;;;;;;;;;;;;;;;;
2023/07/01 07:55:02;;;;;;;;;10.25;10.25;;;;;30.27;48.01;100546.59;146634;576;45014;-68
2023/07/01 07:58:35;;;;;;;;;8.00;7.33;;;;;30.28;48.58;100541.19;146636;570;45014;-68
2023/07/01 08:06:15;;;;;;;;;8.00;7.67;;;;;28.65;48.79;100240.03;146632;580;45014;-69
2023/07/01 08:14:14;;;;;;;;;7.33;7.00;;;;;29.49;48.11;100405.59;146630;666;45014;-69
2023/07/01 08:18:06;;;;;;;;;;;;;;;;;;;;;
2023/07/01 08:22:04;;;;;;;;;10.00;8.33;;;;;29.30;48.57;100423.13;146635;595;45014;-68
2023/07/01 08:30:12;;;;;;;;;;;;;;;;;;;;;
2023/07/01 08:34:14;;;;;;;;;7.00;7.00;;;;;28.17;47.83;100248.56;146632;574;45014;-66
2023/07/01 08:38:06;;;;;;;;;9.00;7.67;;;;;27.93;49.23;100239.47;146638;605;45014;-70
2023/07/01 08:42:02;;;;;;;;;8.00;6.00;;;;;27.89;48.12;100222.69;146634;576;45014;-67
2023/07/01 08:46:09;;;;;;;;;;;;;;;;;;;;;
2023/07/01 08:49:38;;;;;;;;;8.67;8.67;;;;;29.74;45.98;100551.81;146630;577;45014;-67
2023/07/01 08:54:09;;;;;;;;;;;;;;;;;;;;;
2023/07/01 08:57:43;;;;;;;;;8.33;8.33;;;;;30.06;45.56;100554.34;146644;604;44915;-68
2023/07/01 09:01:41;;;;;;;;;9.67;8.33;;;;;28.57;47.10;100266.06;146648;595;44020;-70
2023/07/01 09:05:44;;;;;;;;;7.33;7.33;;;;;30.52;44.33;100538.59;146644;646;44917;-68
2023/07/01 09:09:27;;;;;;;;;8.00;8.00;;;;;30.68;44.94;100539.81;146651;565;44020;-69
2023/07/01 09:17:35;;;;;;;;;;;;;;;;;;;;;
2023/07/01 09:22:02;;;;;;;;;7.67;7.67;;;;;29.54;44.90;100290.59;146642;570;44918;-68
2023/07/01 09:25:39;;;;;;;;;8.50;7.25;;;;;31.03;44.71;100527.91;146651;583;44020;-67
2023/07/01 09:29:19;;;;;;;;;;;;;;;;;;;;;
2023/07/01 09:33:18;;;;;;;;;8.00;8.00;;;;;30.90;43.14;100518.53;146650;654;44020;-67
2023/07/01 09:37:25;;;;;;;;;8.25;7.25;;;;;29.85;41.96;100328.72;146645;594;44914;-66
2023/07/01 09:41:40;;;;;;;;;;;;;;;;;;;;;
2023/07/01 09:45:50;;;;;;;;;;;;;;;;;;;;;
2023/07/01 09:49:33;;;;;;;;;;;;;;;;;;;;;
2023/07/01 09:53:53;;;;;;;;;;;;;;;;;;;;;
2023/07/01 09:57:26;;;;;;;;;8.00;8.00;;;;;31.23;43.36;100481.63;146648;629;44021;-68
2023/07/01 10:02:02;;;;;;;;;11.50;8.50;;;;;31.23;45.01;100476.25;146643;571;44917;-68
2023/07/01 10:05:59;;;;;;;;;;;;;;;;;;;;;
2023/07/01 10:10:02;;;;;;;;;7.67;7.00;;;;;29.00;45.69;100167.75;146642;580;44914;-68
2023/07/01 10:14:04;;;;;;;;;10.00;9.25;;;;;28.77;45.93;100131.13;146646;711;44020;-67
2023/07/01 10:18:11;;;;;;;;;9.00;9.00;;;;;28.88;44.92;100145.91;146648;564;44913;-67
2023/07/01 10:22:23;;;;;;;;;10.67;9.00;;;;;29.85;45.39;100295.78;146647;571;44020;-68
2023/07/01 10:26:39;;;;;;;;;12.00;8.67;;;;;31.02;45.74;100451.16;146647;564;44916;-66
2023/07/01 10:30:26;;;;;;;;;;;;;;;;;;;;;
2023/07/01 10:34:05;;;;;;;;;11.50;10.00;;;;;31.35;43.80;100456.19;146643;576;44914;-68
2023/07/01 10:38:04;;;;;;;;;;;;;;;;;;;;;
2023/07/01 10:41:51;;;;;;;;;8.50;8.25;;;;;29.19;42.98;100103.03;146643;673;45013;-69
2023/07/01 10:46:04;;;;;;;;;9.33;8.33;;;;;29.22;44.11;100138.53;146640;576;45010;-66
2023/07/01 10:54:26;;;;;;;;;11.33;10.00;;;;;31.22;45.06;100439.69;146636;583;45015;-68
2023/07/01 11:03:13;;;;;;;;;;;;;;;;;;;;;
2023/07/01 11:06:58;;;;;;;;;9.67;9.67;;;;;31.39;44.81;100412.25;146630;672;45014;-68
2023/07/01 11:10:41;;;;;;;;;10.00;10.00;;;;;29.65;44.12;100122.78;146636;622;45023;-68
2023/07/01 11:14:46;;;;;;;;;;;;;;;;;;;;;
2023/07/01 11:18:41;;;;;;;;;;;;;;;;;;;;;
2023/07/01 11:22:16;;;;;;;;;8.75;8.00;;;;;29.02;47.65;100140.16;146630;663;45014;-71
2023/07/01 11:25:37;;;;;;;;;9.00;9.00;;;;;30.73;48.17;100392.47;146631;713;45012;-69
2023/07/01 11:29:48;;;;;;;;;9.00;8.00;;;;;29.53;48.70;100171.28;146636;608;45014;-68
2023/07/01 11:37:43;;;;;;;;;11.00;11.00;;;;;28.57;50.53;100048.25;146632;569;45014;-66
2023/07/01 11:42:00;;;;;;;;;;;;;;;;;;;;;
2023/07/01 11:46:09;;;;;;;;;;;;;;;;;;;;;
2023/07/01 11:58:39;;;;;;;;;;;;;;;;;;;;;
2023/07/01 12:02:38;;;;;;;;;10.00;8.33;;;;;29.38;48.34;100071.25;146633;608;46017;-67
2023/07/01 12:06:21;;;;;;;;;10.25;9.25;;;;;29.75;48.77;100134.91;146633;590;45012;-66
2023/07/01 12:10:07;;;;;;;;;;;;;;;;;;;;;
2023/07/01 12:13:51;;;;;;;;;11.00;8.25;;;;;31.41;48.84;100367.53;146633;565;45014;-67
2023/07/01 12:17:44;;;;;;;;;;;;;;;;;;;;;
2023/07/01 12:21:48;;;;;;;;;;;;;;;;;;;;;
2023/07/01 12:25:45;;;;;;;;;;;;;;;;;;;;;
2023/07/01 12:29:19;;;;;;;;;7.75;7.75;;;;;28.27;49.54;99986.97;146633;643;45014;-68
2023/07/01 12:32:38;;;;;;;;;4.75;4.75;;;;;30.30;49.39;100357.44;146629;606;45014;-68
2023/07/01 12:36:25;;;;;;;;;8.25;8.25;;;;;30.25;50.01;100348.75;146634;658;45014;-68
2023/07/01 12:40:31;;;;;;;;;;;;;;;;;;;;;
2023/07/01 12:48:31;;;;;;;;;;;;;;;;;;;;;
2023/07/01 12:52:12;;;;;;;;;;;;;;;;;;;;;
2023/07/01 12:55:59;;;;;;;;;8.00;8.00;;;;;30.35;50.11;100333.22;146629;585;45915;-66
2023/07/01 12:59:54;;;;;;;;;10.00;8.50;;;;;30.42;49.68;100321.34;146642;641;44020;-68
2023/07/01 13:03:52;;;;;;;;;;;;;;;;;;;;;
2023/07/01 13:08:02;;;;;;;;;;;;;;;;;;;;;
2023/07/01 13:12:12;;;;;;;;;10.33;9.67;;;;;28.68;48.85;100002.50;146639;648;44915;-67
2023/07/01 13:16:00;;;;;;;;;10.75;9.75;;;;;28.65;48.18;100002.63;146642;579;44020;-69
2023/07/01 13:23:19;;;;;;;;;11.25;9.75;;;;;30.46;48.68;100303.38;146639;585;44021;-68
2023/07/01 13:27:27;;;;;;;;;;;;;;;;;;;;;
2023/07/01 13:31:11;;;;;;;;;9.00;8.33;;;;;30.28;48.04;100305.84;146643;569;44020;-70
2023/07/01 13:35:06;;;;;;;;;9.50;8.25;;;;;28.73;47.75;100053.94;146639;681;44915;-73
2023/07/01 13:38:57;;;;;;;;;;;;;;;;;;;;;
2023/07/01 13:43:09;;;;;;;;;;;;;;;;;;;;;
2023/07/01 13:54:39;;;;;;;;;11.75;8.75;;;;;28.52;47.19;99957.69;146641;584;45012;-68
2023/07/01 13:58:43;;;;;;;;;10.00;9.00;;;;;28.90;47.92;100016.84;146633;621;45014;-67
2023/07/01 14:02:10;;;;;;;;;8.25;7.75;;;;;30.58;46.98;100279.72;146636;591;45014;-71
2023/07/01 14:06:36;;;;;;;;;;;;;;;;;;;;;
2023/07/01 14:10:46;;;;;;;;;;;;;;;;;;;;;
2023/07/01 14:18:23;;;;;;;;;7.33;7.33;;;;;28.92;46.70;99966.09;146638;590;45014;-70
2023/07/01 14:26:09;;;;;;;;;;;;;;;;;;;;;
2023/07/01 14:30:11;;;;;;;;;8.67;8.00;;;;;30.54;46.65;100250.47;146631;645;45919;-71
2023/07/01 14:34:23;;;;;;;;;;;;;;;;;;;;;
2023/07/01 14:42:27;;;;;;;;;8.75;8.75;;;;;30.39;47.35;100246.56;146639;676;45014;-69
2023/07/01 14:46:08;;;;;;;;;8.00;6.33;;;;;30.22;48.26;100231.19;146632;618;45014;-71
2023/07/01 14:49:43;;;;;;;;;10.75;9.50;;;;;28.29;48.48;99912.28;146633;653;45014;-66
2023/07/01 14:53:42;;;;;;;;;8.67;8.00;;;;;28.26;47.49;99923.06;146636;599;45014;-68
2023/07/01 14:57:05;;;;;;;;;7.33;5.67;;;;;30.07;47.71;100199.63;146645;671;44020;-69
2023/07/01 15:05:49;;;;;;;;;;;;;;;;;;;;;
2023/07/01 15:09:38;;;;;;;;;;;;;;;;;;;;;
2023/07/01 15:17:33;;;;;;;;;8.00;8.00;;;;;28.17;46.91;99870.06;146639;682;45915;-70
2023/07/01 15:21:22;;;;;;;;;;;;;;;;;;;;;
2023/07/01 15:25:04;;;;;;;;;7.25;7.25;;;;;28.21;47.15;99855.69;146648;667;44016;-69
2023/07/01 15:36:48;;;;;;;;;8.00;8.00;;;;;27.68;47.21;99789.97;146648;622;44022;-71
2023/07/01 15:40:34;;;;;;;;;7.67;7.33;;;;;30.13;45.91;100175.34;146644;638;46010;-69
2023/07/01 15:44:28;;;;;;;;;9.50;8.75;;;;;28.31;44.86;99873.97;146650;604;44022;-70
2023/07/01 15:48:16;;;;;;;;;;;;;;;;;;;;;
2023/07/01 15:52:10;;;;;;;;;7.33;6.00;;;;;28.16;46.13;99878.97;146650;655;44022;-68
2023/07/01 15:56:09;;;;;;;;;;;;;;;;;;;;;
2023/07/01 16:11:45;;;;;;;;;7.00;7.00;;;;;27.49;46.09;99880.25;146632;573;45014;-70
2023/07/01 16:16:30;;;;;;;;;;;;;;;;;;;;;
2023/07/01 16:20:42;;;;;;;;;;;;;;;;;;;;;
2023/07/01 16:24:48;;;;;;;;;;;;;;;;;;;;;
2023/07/01 16:32:58;;;;;;;;;;;;;;;;;;;;;
2023/07/01 16:37:17;;;;;;;;;;;;;;;;;;;;;
2023/07/01 16:41:12;;;;;;;;;;;;;;;;;;;;;
2023/07/01 16:44:59;;;;;;;;;7.00;7.00;;;;;27.17;44.59;99881.25;146635;590;45014;-68
2023/07/01 16:48:33;;;;;;;;;7.00;6.33;;;;;28.87;45.17;100173.50;146633;652;45014;-69
2023/07/01 16:52:42;;;;;;;;;;;;;;;;;;;;;
2023/07/01 16:56:10;;;;;;;;;6.67;6.33;;;;;28.80;46.13;100178.19;146642;657;45010;-69
2023/07/01 17:00:08;;;;;;;;;8.50;7.25;;;;;28.76;45.55;100173.88;146645;673;44915;-69
2023/07/01 17:04:03;;;;;;;;;6.75;6.50;;;;;27.77;46.96;100016.13;146645;618;44020;-70
2023/07/01 17:07:37;;;;;;;;;8.00;8.00;;;;;28.69;48.91;100169.66;146638;619;45012;-70
2023/07/01 17:11:22;;;;;;;;;;;;;;;;;;;;;
2023/07/01 17:19:32;;;;;;;;;6.00;5.67;;;;;26.56;46.80;99910.44;146649;563;44020;-67
2023/07/01 17:27:40;;;;;;;;;6.67;6.00;;;;;26.11;47.24;99851.41;146653;594;44021;-68
2023/07/01 17:31:32;;;;;;;;;7.00;7.00;;;;;27.87;47.16;100165.91;146648;624;44016;-68
2023/07/01 17:39:11;;;;;;;;;6.00;6.00;;;;;27.78;45.06;100163.50;146649;586;44016;-68
2023/07/01 17:43:13;;;;;;;;;5.33;5.33;;;;;25.93;45.56;99850.09;146640;641;48023;-68
2023/07/01 17:47:04;;;;;;;;;7.67;7.67;;;;;25.89;45.96;99844.00;146646;710;44916;-69
2023/07/01 17:51:06;;;;;;;;;;;;;;;;;;;;;
2023/07/01 17:54:47;;;;;;;;;7.33;7.00;;;;;27.64;45.68;100162.06;146638;573;45014;-68
2023/07/01 17:58:27;;;;;;;;;5.67;5.33;;;;;25.68;45.75;99837.41;146634;569;45014;-69
2023/07/01 18:01:44;;;;;;;;;;;;;;;;;;;;;
2023/07/01 18:05:53;;;;;;;;;;;;;;;;;;;;;
2023/07/01 19:12:50;;;;;;;;;12.25;11.50;;;;;27.79;48.29;100237.19;146615;574;46031;-67
2023/07/01 19:15:55;;;;;;;;;13.75;13.00;;;;;27.62;49.02;100240.25;146612;599;46016;-66
2023/07/01 19:19:09;;;;;;;;;13.50;12.50;;;;;27.51;49.65;100252.97;146606;601;46020;-64
2023/07/01 19:22:32;;;;;;;;;;;;;;;;;;;;;
2023/07/01 19:25:30;;;;;;;;;19.00;17.50;;;;;27.23;50.56;100258.13;146613;578;46020;-66
2023/07/01 19:28:25;;;;;;;;;18.75;14.75;;;;;27.10;51.10;100262.84;146609;615;46017;-65
2023/07/01 19:35:04;;;;;;;;;13.50;12.25;;;;;26.97;51.80;100266.72;146609;673;46012;-66
2023/07/01 19:38:05;;;;;;;;;16.75;15.25;;;;;26.92;51.80;100269.50;146608;599;48020;-65
2023/07/01 19:40:57;;;;;;;;;14.50;12.75;;;;;26.88;52.10;100276.62;146607;577;46016;-66
2023/07/01 19:43:51;;;;;;;;;14.75;14.00;;;;;26.84;52.38;100276.75;146611;613;46028;-65
2023/07/01 19:46:55;;;;;;;;;14.00;12.75;;;;;25.46;52.27;100060.00;146607;603;46919;-65
2023/07/01 19:49:52;;;;;;;;;16.00;15.00;;;;;26.60;53.12;100268.41;146609;595;47021;-65
2023/07/01 19:53:14;;;;;;;;;19.50;17.50;;;;;25.19;52.33;100056.09;146607;563;46016;-66
2023/07/01 19:56:10;;;;;;;;;13.50;12.00;;;;;26.48;53.08;100289.94;146613;631;46021;-66
2023/07/01 19:59:06;;;;;;;;;15.00;12.75;;;;;26.44;53.46;100285.56;146609;626;46919;-66
2023/07/01 20:02:26;;;;;;;;;14.00;13.00;;;;;26.39;53.47;100282.16;146613;612;46020;-65
2023/07/01 20:05:33;;;;;;;;;12.25;11.75;;;;;25.03;52.86;100057.28;146611;571;46030;-65
2023/07/01 20:08:35;;;;;;;;;13.00;12.75;;;;;26.35;53.76;100285.75;146612;590;47010;-65
2023/07/01 20:11:30;;;;;;;;;14.50;12.00;;;;;26.37;53.55;100286.62;146604;592;47017;-65
2023/07/01 20:14:32;;;;;;;;;15.50;13.50;;;;;26.40;53.11;100289.22;146634;582;46010;-66
2023/07/01 20:17:27;;;;;;;;;18.00;15.75;;;;;26.37;54.06;100292.81;146631;581;46919;-65
2023/07/01 20:20:25;;;;;;;;;17.50;15.75;;;;;26.31;54.60;100279.62;146634;695;45020;-67
2023/07/01 20:23:31;;;;;;;;;15.25;15.25;;;;;26.23;54.01;100281.56;146632;587;46012;-65
2023/07/01 20:26:24;;;;;;;;;14.25;12.75;;;;;26.12;55.00;100284.44;146633;643;46010;-65
2023/07/01 20:29:30;;;;;;;;;15.50;13.75;;;;;26.04;54.49;100275.75;146632;610;46012;-67
2023/07/01 20:32:29;;;;;;;;;14.75;13.50;;;;;26.04;53.90;100273.09;146635;694;45021;-65
2023/07/01 20:35:24;;;;;;;;;16.00;14.50;;;;;26.07;54.00;100280.13;146634;620;46920;-65
2023/07/01 20:38:19;;;;;;;;;15.75;14.25;;;;;26.06;54.70;100279.25;146632;629;46020;-65
2023/07/01 20:41:11;;;;;;;;;18.00;14.50;;;;;26.02;54.28;100280.22;146633;633;45016;-65
2023/07/01 20:44:06;;;;;;;;;16.75;15.25;;;;;25.99;54.01;100275.84;146636;700;45010;-65
2023/07/01 20:46:58;;;;;;;;;15.00;12.75;;;;;25.99;54.01;100285.59;146633;569;45012;-64
2023/07/01 20:49:58;;;;;;;;;13.00;12.00;;;;;25.97;54.04;100290.06;146632;594;46012;-66
2023/07/01 20:52:50;;;;;;;;;12.75;12.00;;;;;25.91;54.34;100291.03;146630;569;45919;-64
2023/07/01 20:55:45;;;;;;;;;14.00;12.25;;;;;25.85;54.57;100295.59;146635;692;45021;-66
2023/07/01 20:58:37;;;;;;;;;12.00;11.00;;;;;25.74;54.68;100291.31;146631;634;46012;-65
2023/07/01 21:01:35;;;;;;;;;13.75;12.00;;;;;25.66;55.29;100287.06;146628;576;46020;-65
2023/07/01 21:04:27;;;;;;;;;10.67;10.67;;;;;25.57;55.31;100282.78;146635;598;45034;-66
2023/07/01 21:07:28;;;;;;;;;12.25;10.50;;;;;25.53;55.22;100281.09;146635;599;46010;-66
2023/07/01 21:10:22;;;;;;;;;12.25;12.00;;;;;25.53;54.76;100283.72;146633;620;46919;-67
2023/07/01 21:13:21;;;;;;;;;14.50;13.50;;;;;25.53;54.55;100286.38;146616;571;46020;-63
2023/07/01 21:16:25;;;;;;;;;12.75;12.75;;;;;25.52;54.84;100285.53;146604;579;47017;-64
2023/07/01 21:19:24;;;;;;;;;14.25;14.00;;;;;25.52;55.08;100284.66;146602;575;46021;-64
2023/07/01 21:22:26;;;;;;;;;13.75;13.50;;;;;25.49;54.64;100290.00;146603;654;46026;-65
2023/07/01 21:25:21;;;;;;;;;12.50;11.00;;;;;25.44;55.61;100292.72;146606;570;47011;-64
2023/07/01 21:28:26;;;;;;;;;14.00;12.50;;;;;25.36;54.88;100286.69;146601;564;47012;-64
2023/07/01 21:31:32;;;;;;;;;13.75;12.50;;;;;25.31;55.16;100288.53;146604;671;47010;-63
2023/07/01 21:34:28;;;;;;;;;15.75;12.75;;;;;25.28;55.65;100296.53;146603;703;46012;-64
2023/07/01 21:37:22;;;;;;;;;14.50;12.00;;;;;25.22;56.35;100292.19;146606;563;47010;-65
2023/07/01 21:40:45;;;;;;;;;;;;;;;;;;;;;
2023/07/01 21:43:39;;;;;;;;;10.75;10.75;;;;;25.14;56.52;100304.72;146606;574;47010;-66
2023/07/01 21:46:35;;;;;;;;;11.33;10.67;;;;;25.06;56.57;100302.13;146605;676;48012;-66
2023/07/01 21:49:27;;;;;;;;;12.75;11.00;;;;;25.00;56.26;100296.91;146603;642;46021;-67
2023/07/01 21:52:20;;;;;;;;;13.33;12.00;;;;;24.98;56.67;100308.44;146604;600;47014;-67
2023/07/01 21:55:38;;;;;;;;;12.00;9.67;;;;;24.96;55.50;100302.31;146608;576;46029;-66
2023/07/01 21:59:02;;;;;;;;;10.33;9.00;;;;;24.92;56.85;100287.31;146607;628;47014;-66
2023/07/01 22:02:01;;;;;;;;;12.67;9.00;;;;;24.83;57.03;100297.19;146611;594;48011;-65
2023/07/01 22:04:59;;;;;;;;;12.75;10.75;;;;;24.79;57.65;100298.09;146609;718;46016;-67
2023/07/01 22:07:56;;;;;;;;;12.25;12.25;;;;;24.77;57.87;100299.03;146609;570;46020;-66
2023/07/01 22:10:53;;;;;;;;;9.33;9.00;;;;;24.77;57.74;100299.03;146604;610;46017;-66
2023/07/01 22:13:54;;;;;;;;;9.67;8.67;;;;;24.79;56.40;100287.50;146617;624;46020;-66
2023/07/01 22:16:49;;;;;;;;;11.33;10.00;;;;;24.83;58.23;100296.31;146610;635;46016;-67
2023/07/01 22:19:44;;;;;;;;;9.00;8.67;;;;;24.78;58.86;100284.87;146603;586;47010;-68
2023/07/01 22:22:40;;;;;;;;;11.50;9.75;;;;;24.73;58.61;100284.06;146608;681;47012;-67
2023/07/01 22:25:32;;;;;;;;;9.33;9.33;;;;;24.68;58.74;100272.66;146618;575;46020;-66
2023/07/01 22:28:30;;;;;;;;;13.00;12.00;;;;;24.68;59.03;100277.97;146610;670;46016;-66
2023/07/01 22:31:31;;;;;;;;;12.67;12.00;;;;;24.68;58.69;100268.22;146608;578;46010;-66
2023/07/01 22:34:35;;;;;;;;;14.00;11.75;;;;;24.67;58.73;100261.16;146602;616;46016;-66
2023/07/01 22:37:40;;;;;;;;;;;;;;;;;;;;;
2023/07/01 22:40:40;;;;;;;;;10.33;9.00;;;;;24.64;58.60;100262.09;146605;565;46025;-65
2023/07/01 22:43:32;;;;;;;;;11.50;10.00;;;;;24.62;58.58;100263.87;146614;637;47010;-64
2023/07/01 22:46:27;;;;;;;;;10.00;10.00;;;;;24.61;59.01;100256.84;146605;576;46030;-65
2023/07/01 22:49:25;;;;;;;;;13.25;11.25;;;;;24.61;58.63;100263.87;146603;604;46010;-65
2023/07/01 22:52:32;;;;;;;;;10.25;9.25;;;;;24.54;59.25;100256.91;146601;629;47012;-65
2023/07/01 22:55:27;;;;;;;;;9.67;9.00;;;;;24.46;59.17;100258.81;146615;606;47010;-64
2023/07/01 22:58:21;;;;;;;;;15.00;13.00;;;;;24.41;59.84;100264.13;146611;569;46918;-66
2023/07/01 23:01:27;;;;;;;;;13.00;12.00;;;;;24.36;59.63;100266.84;146609;629;46021;-65
2023/07/01 23:04:18;;;;;;;;;12.33;10.33;;;;;24.33;59.59;100261.59;146604;576;46016;-64
2023/07/01 23:07:13;;;;;;;;;11.33;10.00;;;;;24.30;59.23;100266.94;146607;607;46020;-67
2023/07/01 23:10:17;;;;;;;;;12.00;11.67;;;;;24.28;59.69;100260.75;146604;652;46017;-65
2023/07/01 23:13:12;;;;;;;;;12.00;12.00;;;;;24.30;59.92;100269.56;146605;577;47010;-67
2023/07/01 23:16:18;;;;;;;;;11.25;10.00;;;;;24.30;59.95;100276.62;146602;570;46918;-65
2023/07/01 23:19:13;;;;;;;;;12.75;11.75;;;;;24.25;59.96;100279.34;146603;595;46020;-65
2023/07/01 23:22:11;;;;;;;;;12.00;11.00;;;;;24.22;61.09;100270.56;146607;609;46016;-64
2023/07/01 23:25:09;;;;;;;;;11.00;11.00;;;;;24.16;60.17;100269.72;146605;577;47010;-64
2023/07/01 23:28:11;;;;;;;;;13.00;11.67;;;;;24.10;60.62;100261.84;146604;607;46016;-65
2023/07/01 23:31:09;;;;;;;;;12.33;10.33;;;;;24.05;60.42;100257.50;146609;709;47010;-64
2023/07/01 23:34:20;;;;;;;;;;;;;;;;;;;;;
2023/07/01 23:37:13;;;;;;;;;10.50;9.00;;;;;24.07;59.83;100250.41;146607;592;46010;-64
2023/07/01 23:40:10;;;;;;;;;10.25;9.50;;;;;24.10;59.60;100243.31;146610;666;47014;-64
2023/07/01 23:43:10;;;;;;;;;9.00;9.00;;;;;24.14;59.24;100254.72;146616;633;47020;-64
2023/07/01 23:46:08;;;;;;;;;11.50;10.00;;;;;24.19;59.52;100253.78;146611;679;46017;-65
2023/07/01 23:49:03;;;;;;;;;10.00;9.75;;;;;24.22;59.17;100258.19;146602;614;46034;-65
2023/07/01 23:52:05;;;;;;;;;9.75;9.00;;;;;24.19;59.18;100258.22;146608;565;47014;-65
2023/07/01 23:55:00;;;;;;;;;10.75;10.00;;;;;24.10;60.08;100247.72;146614;694;46029;-65
2023/07/01 23:57:56;;;;;;;;;11.00;9.67;;;;;24.04;60.24;100253.97;146608;589;46016;-66
